sensor_id;sensor_type;location;lat;lon;timestamp;temperature;humidity
57664;DHT22;43493;53.098;6.064;2023-04-29T00:01:25;9.60;99.90
57664;DHT22;43493;53.098;6.064;2023-04-29T00:03:51;9.60;99.90
57664;DHT22;43493;53.098;6.064;2023-04-29T00:06:17;9.50;99.90
57664;DHT22;43493;53.098;6.064;2023-04-29T00:08:43;9.50;99.90
57664;DHT22;43493;53.098;6.064;2023-04-29T00:11:09;9.60;99.90
57664;DHT22;43493;53.098;6.064;2023-04-29T00:13:36;9.50;99.90
57664;DHT22;43493;53.098;6.064;2023-04-29T00:16:04;9.50;99.90
57664;DHT22;43493;53.098;6.064;2023-04-29T00:18:30;9.50;99.90
57664;DHT22;43493;53.098;6.064;2023-04-29T00:20:56;9.50;99.90
57664;DHT22;43493;53.098;6.064;2023-04-29T00:23:22;9.50;99.90
57664;DHT22;43493;53.098;6.064;2023-04-29T00:25:48;9.50;99.90
57664;DHT22;43493;53.098;6.064;2023-04-29T00:28:14;9.50;99.90
57664;DHT22;43493;53.098;6.064;2023-04-29T00:30:40;9.50;99.90
57664;DHT22;43493;53.098;6.064;2023-04-29T00:33:06;9.50;99.90
57664;DHT22;43493;53.098;6.064;2023-04-29T00:35:31;9.40;99.90
57664;DHT22;43493;53.098;6.064;2023-04-29T00:37:57;9.40;99.90
57664;DHT22;43493;53.098;6.064;2023-04-29T00:40:23;9.50;99.90
57664;DHT22;43493;53.098;6.064;2023-04-29T00:42:48;9.40;99.90
57664;DHT22;43493;53.098;6.064;2023-04-29T00:45:15;9.50;99.90
57664;DHT22;43493;53.098;6.064;2023-04-29T00:47:40;9.40;99.90
57664;DHT22;43493;53.098;6.064;2023-04-29T00:50:07;9.40;99.90
57664;DHT22;43493;53.098;6.064;2023-04-29T00:52:33;9.40;99.90
57664;DHT22;43493;53.098;6.064;2023-04-29T00:55:00;9.50;99.90
57664;DHT22;43493;53.098;6.064;2023-04-29T00:57:25;9.40;99.90
57664;DHT22;43493;53.098;6.064;2023-04-29T00:59:58;9.40;99.90
57664;DHT22;43493;53.098;6.064;2023-04-29T01:02:24;9.40;99.90
57664;DHT22;43493;53.098;6.064;2023-04-29T01:04:51;9.40;99.90
57664;DHT22;43493;53.098;6.064;2023-04-29T01:07:29;9.40;99.90
57664;DHT22;43493;53.098;6.064;2023-04-29T01:12:53;9.50;99.90
57664;DHT22;43493;53.098;6.064;2023-04-29T01:15:48;9.40;99.90
57664;DHT22;43493;53.098;6.064;2023-04-29T01:18:26;9.40;99.90
57664;DHT22;43493;53.098;6.064;2023-04-29T01:20:54;9.40;99.90
57664;DHT22;43493;53.098;6.064;2023-04-29T01:23:25;9.40;99.90
57664;DHT22;43493;53.098;6.064;2023-04-29T01:25:51;9.40;99.90
57664;DHT22;43493;53.098;6.064;2023-04-29T01:31:14;9.40;99.90
57664;DHT22;43493;53.098;6.064;2023-04-29T01:34:12;9.40;99.90
57664;DHT22;43493;53.098;6.064;2023-04-29T01:39:32;9.40;99.90
57664;DHT22;43493;53.098;6.064;2023-04-29T01:42:04;9.40;99.90
57664;DHT22;43493;53.098;6.064;2023-04-29T01:44:32;9.40;99.90
57664;DHT22;43493;53.098;6.064;2023-04-29T01:46:58;9.40;99.90
57664;DHT22;43493;53.098;6.064;2023-04-29T01:49:29;9.50;99.90
57664;DHT22;43493;53.098;6.064;2023-04-29T01:51:54;9.50;99.90
57664;DHT22;43493;53.098;6.064;2023-04-29T01:54:20;9.40;99.90
57664;DHT22;43493;53.098;6.064;2023-04-29T01:56:47;9.50;99.90
57664;DHT22;43493;53.098;6.064;2023-04-29T01:59:13;9.50;99.90
57664;DHT22;43493;53.098;6.064;2023-04-29T02:01:38;9.50;99.90
57664;DHT22;43493;53.098;6.064;2023-04-29T02:04:04;9.50;99.90
57664;DHT22;43493;53.098;6.064;2023-04-29T02:06:30;9.50;99.90
57664;DHT22;43493;53.098;6.064;2023-04-29T02:08:57;9.60;99.90
57664;DHT22;43493;53.098;6.064;2023-04-29T02:11:23;9.50;99.90
57664;DHT22;43493;53.098;6.064;2023-04-29T02:13:48;9.50;99.90
57664;DHT22;43493;53.098;6.064;2023-04-29T02:16:15;9.50;99.90
57664;DHT22;43493;53.098;6.064;2023-04-29T02:18:41;9.50;99.90
57664;DHT22;43493;53.098;6.064;2023-04-29T02:21:07;9.50;99.90
57664;DHT22;43493;53.098;6.064;2023-04-29T02:23:36;9.50;99.90
57664;DHT22;43493;53.098;6.064;2023-04-29T02:26:02;9.50;99.90
57664;DHT22;43493;53.098;6.064;2023-04-29T02:28:34;9.40;99.90
57664;DHT22;43493;53.098;6.064;2023-04-29T02:31:00;9.50;99.90
57664;DHT22;43493;53.098;6.064;2023-04-29T02:33:26;9.40;99.90
57664;DHT22;43493;53.098;6.064;2023-04-29T02:35:52;9.40;99.90
57664;DHT22;43493;53.098;6.064;2023-04-29T02:38:18;9.40;99.90
57664;DHT22;43493;53.098;6.064;2023-04-29T02:40:44;9.40;99.90
57664;DHT22;43493;53.098;6.064;2023-04-29T02:43:11;9.40;99.90
57664;DHT22;43493;53.098;6.064;2023-04-29T02:45:37;9.30;99.90
57664;DHT22;43493;53.098;6.064;2023-04-29T02:48:04;9.30;99.90
57664;DHT22;43493;53.098;6.064;2023-04-29T02:50:30;9.30;99.90
57664;DHT22;43493;53.098;6.064;2023-04-29T02:52:56;9.30;99.90
57664;DHT22;43493;53.098;6.064;2023-04-29T02:55:22;9.30;99.90
57664;DHT22;43493;53.098;6.064;2023-04-29T02:57:48;9.30;99.90
57664;DHT22;43493;53.098;6.064;2023-04-29T03:00:13;9.30;99.90
57664;DHT22;43493;53.098;6.064;2023-04-29T03:02:39;9.20;99.90
57664;DHT22;43493;53.098;6.064;2023-04-29T03:05:05;9.30;99.90
57664;DHT22;43493;53.098;6.064;2023-04-29T03:07:31;9.30;99.90
57664;DHT22;43493;53.098;6.064;2023-04-29T03:09:57;9.30;99.90
57664;DHT22;43493;53.098;6.064;2023-04-29T03:12:23;9.20;99.90
57664;DHT22;43493;53.098;6.064;2023-04-29T03:14:49;9.20;99.90
57664;DHT22;43493;53.098;6.064;2023-04-29T03:17:16;9.20;99.90
57664;DHT22;43493;53.098;6.064;2023-04-29T03:19:42;9.20;99.90
57664;DHT22;43493;53.098;6.064;2023-04-29T03:22:08;9.20;99.90
57664;DHT22;43493;53.098;6.064;2023-04-29T03:24:37;9.20;99.90
57664;DHT22;43493;53.098;6.064;2023-04-29T03:27:03;9.20;99.90
57664;DHT22;43493;53.098;6.064;2023-04-29T03:29:30;9.20;99.90
57664;DHT22;43493;53.098;6.064;2023-04-29T03:31:56;9.20;99.90
57664;DHT22;43493;53.098;6.064;2023-04-29T03:34:22;9.20;99.90
57664;DHT22;43493;53.098;6.064;2023-04-29T03:36:49;9.20;99.90
57664;DHT22;43493;53.098;6.064;2023-04-29T03:39:15;9.20;99.90
57664;DHT22;43493;53.098;6.064;2023-04-29T03:41:41;9.20;99.90
57664;DHT22;43493;53.098;6.064;2023-04-29T03:44:07;9.20;99.90
57664;DHT22;43493;53.098;6.064;2023-04-29T03:46:33;9.20;99.90
57664;DHT22;43493;53.098;6.064;2023-04-29T03:48:58;9.20;99.90
57664;DHT22;43493;53.098;6.064;2023-04-29T03:51:24;9.20;99.90
57664;DHT22;43493;53.098;6.064;2023-04-29T03:53:51;9.20;99.90
57664;DHT22;43493;53.098;6.064;2023-04-29T03:56:18;9.20;99.90
57664;DHT22;43493;53.098;6.064;2023-04-29T03:58:43;9.20;99.90
57664;DHT22;43493;53.098;6.064;2023-04-29T04:01:09;9.20;99.90
57664;DHT22;43493;53.098;6.064;2023-04-29T04:03:36;9.20;99.90
57664;DHT22;43493;53.098;6.064;2023-04-29T04:06:02;9.20;99.90
57664;DHT22;43493;53.098;6.064;2023-04-29T04:08:28;9.20;99.90
57664;DHT22;43493;53.098;6.064;2023-04-29T04:10:54;9.20;99.90
57664;DHT22;43493;53.098;6.064;2023-04-29T04:13:20;9.20;99.90
57664;DHT22;43493;53.098;6.064;2023-04-29T04:15:50;9.20;99.90
57664;DHT22;43493;53.098;6.064;2023-04-29T04:18:16;9.20;99.90
57664;DHT22;43493;53.098;6.064;2023-04-29T04:20:42;9.20;99.90
57664;DHT22;43493;53.098;6.064;2023-04-29T04:23:08;9.20;99.90
57664;DHT22;43493;53.098;6.064;2023-04-29T04:25:33;9.20;99.90
57664;DHT22;43493;53.098;6.064;2023-04-29T04:27:59;9.20;99.90
57664;DHT22;43493;53.098;6.064;2023-04-29T04:30:25;9.20;99.90
57664;DHT22;43493;53.098;6.064;2023-04-29T04:32:50;9.20;99.90
57664;DHT22;43493;53.098;6.064;2023-04-29T04:35:16;9.20;99.90
57664;DHT22;43493;53.098;6.064;2023-04-29T04:37:42;9.20;99.90
57664;DHT22;43493;53.098;6.064;2023-04-29T04:40:08;9.10;99.90
57664;DHT22;43493;53.098;6.064;2023-04-29T04:42:35;9.20;99.90
57664;DHT22;43493;53.098;6.064;2023-04-29T04:45:01;9.20;99.90
57664;DHT22;43493;53.098;6.064;2023-04-29T04:47:27;9.20;99.90
57664;DHT22;43493;53.098;6.064;2023-04-29T04:49:53;9.20;99.90
57664;DHT22;43493;53.098;6.064;2023-04-29T04:52:21;9.20;99.90
57664;DHT22;43493;53.098;6.064;2023-04-29T04:54:47;9.20;99.90
57664;DHT22;43493;53.098;6.064;2023-04-29T04:57:13;9.20;99.90
57664;DHT22;43493;53.098;6.064;2023-04-29T04:59:39;9.20;99.90
57664;DHT22;43493;53.098;6.064;2023-04-29T05:02:04;9.30;99.90
57664;DHT22;43493;53.098;6.064;2023-04-29T05:04:30;9.20;99.90
57664;DHT22;43493;53.098;6.064;2023-04-29T05:06:56;9.20;99.90
57664;DHT22;43493;53.098;6.064;2023-04-29T05:09:22;9.30;99.90
57664;DHT22;43493;53.098;6.064;2023-04-29T05:11:47;9.30;99.90
57664;DHT22;43493;53.098;6.064;2023-04-29T05:14:13;9.30;99.90
57664;DHT22;43493;53.098;6.064;2023-04-29T05:16:39;9.30;99.90
57664;DHT22;43493;53.098;6.064;2023-04-29T05:19:05;9.30;99.90
57664;DHT22;43493;53.098;6.064;2023-04-29T05:21:30;9.30;99.90
57664;DHT22;43493;53.098;6.064;2023-04-29T05:23:56;9.40;99.90
57664;DHT22;43493;53.098;6.064;2023-04-29T05:26:22;9.40;99.90
57664;DHT22;43493;53.098;6.064;2023-04-29T05:28:48;9.40;99.90
57664;DHT22;43493;53.098;6.064;2023-04-29T05:31:14;9.50;99.90
57664;DHT22;43493;53.098;6.064;2023-04-29T05:33:39;9.50;99.90
57664;DHT22;43493;53.098;6.064;2023-04-29T05:36:05;9.60;99.90
57664;DHT22;43493;53.098;6.064;2023-04-29T05:38:32;9.60;99.90
57664;DHT22;43493;53.098;6.064;2023-04-29T05:40:57;9.70;99.90
57664;DHT22;43493;53.098;6.064;2023-04-29T05:43:24;9.70;99.90
57664;DHT22;43493;53.098;6.064;2023-04-29T05:45:49;9.90;99.90
57664;DHT22;43493;53.098;6.064;2023-04-29T05:48:15;10.10;99.90
57664;DHT22;43493;53.098;6.064;2023-04-29T05:50:41;11.00;99.90
57664;DHT22;43493;53.098;6.064;2023-04-29T05:53:07;12.20;99.90
57664;DHT22;43493;53.098;6.064;2023-04-29T05:55:33;13.30;99.90
57664;DHT22;43493;53.098;6.064;2023-04-29T05:57:59;14.40;99.90
57664;DHT22;43493;53.098;6.064;2023-04-29T06:00:25;15.20;99.90
57664;DHT22;43493;53.098;6.064;2023-04-29T06:02:50;15.90;99.90
57664;DHT22;43493;53.098;6.064;2023-04-29T06:05:16;16.50;99.90
57664;DHT22;43493;53.098;6.064;2023-04-29T06:07:42;16.90;99.90
57664;DHT22;43493;53.098;6.064;2023-04-29T06:10:09;17.60;99.90
57664;DHT22;43493;53.098;6.064;2023-04-29T06:12:35;18.00;99.90
57664;DHT22;43493;53.098;6.064;2023-04-29T06:15:01;18.50;99.90
57664;DHT22;43493;53.098;6.064;2023-04-29T06:17:27;19.10;99.90
57664;DHT22;43493;53.098;6.064;2023-04-29T06:19:55;19.10;99.90
57664;DHT22;43493;53.098;6.064;2023-04-29T06:22:21;19.40;99.90
57664;DHT22;43493;53.098;6.064;2023-04-29T06:24:47;19.30;99.90
57664;DHT22;43493;53.098;6.064;2023-04-29T06:27:15;19.30;99.90
57664;DHT22;43493;53.098;6.064;2023-04-29T06:29:41;19.30;92.30
57664;DHT22;43493;53.098;6.064;2023-04-29T06:32:07;19.90;99.90
57664;DHT22;43493;53.098;6.064;2023-04-29T06:34:33;19.90;99.90
57664;DHT22;43493;53.098;6.064;2023-04-29T06:36:59;20.60;99.90
57664;DHT22;43493;53.098;6.064;2023-04-29T06:39:24;20.80;93.10
57664;DHT22;43493;53.098;6.064;2023-04-29T06:41:50;21.10;95.20
57664;DHT22;43493;53.098;6.064;2023-04-29T06:44:17;21.50;92.30
57664;DHT22;43493;53.098;6.064;2023-04-29T06:46:44;21.40;79.00
57664;DHT22;43493;53.098;6.064;2023-04-29T06:49:09;21.40;80.00
57664;DHT22;43493;53.098;6.064;2023-04-29T06:51:38;21.40;64.90
57664;DHT22;43493;53.098;6.064;2023-04-29T06:54:04;21.70;68.10
57664;DHT22;43493;53.098;6.064;2023-04-29T06:56:30;21.90;68.90
57664;DHT22;43493;53.098;6.064;2023-04-29T06:58:55;22.40;69.60
57664;DHT22;43493;53.098;6.064;2023-04-29T07:01:21;22.80;65.10
57664;DHT22;43493;53.098;6.064;2023-04-29T07:03:47;23.10;65.40
57664;DHT22;43493;53.098;6.064;2023-04-29T07:06:13;23.30;64.10
57664;DHT22;43493;53.098;6.064;2023-04-29T07:08:38;23.20;61.30
57664;DHT22;43493;53.098;6.064;2023-04-29T07:11:04;23.10;54.80
57664;DHT22;43493;53.098;6.064;2023-04-29T07:13:30;23.20;60.00
57664;DHT22;43493;53.098;6.064;2023-04-29T07:15:56;23.70;59.40
57664;DHT22;43493;53.098;6.064;2023-04-29T07:18:22;24.30;54.80
57664;DHT22;43493;53.098;6.064;2023-04-29T07:20:48;24.10;55.50
57664;DHT22;43493;53.098;6.064;2023-04-29T07:23:15;23.70;55.70
57664;DHT22;43493;53.098;6.064;2023-04-29T07:25:41;23.50;56.10
57664;DHT22;43493;53.098;6.064;2023-04-29T07:28:07;23.90;56.00
57664;DHT22;43493;53.098;6.064;2023-04-29T07:30:35;24.00;55.30
57664;DHT22;43493;53.098;6.064;2023-04-29T07:33:02;23.40;51.40
57664;DHT22;43493;53.098;6.064;2023-04-29T07:35:29;23.70;53.30
57664;DHT22;43493;53.098;6.064;2023-04-29T07:37:55;24.10;54.50
57664;DHT22;43493;53.098;6.064;2023-04-29T07:40:21;24.50;52.40
57664;DHT22;43493;53.098;6.064;2023-04-29T07:42:47;25.10;52.20
57664;DHT22;43493;53.098;6.064;2023-04-29T07:45:12;25.20;50.70
57664;DHT22;43493;53.098;6.064;2023-04-29T07:47:39;24.80;50.90
57664;DHT22;43493;53.098;6.064;2023-04-29T07:50:05;24.30;50.50
57664;DHT22;43493;53.098;6.064;2023-04-29T07:52:31;24.70;50.90
57664;DHT22;43493;53.098;6.064;2023-04-29T07:54:57;24.80;50.40
57664;DHT22;43493;53.098;6.064;2023-04-29T07:57:23;25.10;50.30
57664;DHT22;43493;53.098;6.064;2023-04-29T07:59:54;25.20;49.40
57664;DHT22;43493;53.098;6.064;2023-04-29T08:02:20;24.70;48.60
57664;DHT22;43493;53.098;6.064;2023-04-29T08:04:46;24.00;49.00
57664;DHT22;43493;53.098;6.064;2023-04-29T08:07:12;23.10;50.00
57664;DHT22;43493;53.098;6.064;2023-04-29T08:09:38;22.20;52.00
57664;DHT22;43493;53.098;6.064;2023-04-29T08:12:04;21.50;52.80
57664;DHT22;43493;53.098;6.064;2023-04-29T08:14:30;20.90;54.20
57664;DHT22;43493;53.098;6.064;2023-04-29T08:16:55;20.20;54.20
57664;DHT22;43493;53.098;6.064;2023-04-29T08:19:21;19.50;55.20
57664;DHT22;43493;53.098;6.064;2023-04-29T08:21:47;18.90;55.80
57664;DHT22;43493;53.098;6.064;2023-04-29T08:24:13;18.50;56.70
57664;DHT22;43493;53.098;6.064;2023-04-29T08:26:41;18.10;56.80
57664;DHT22;43493;53.098;6.064;2023-04-29T08:29:13;17.70;57.40
57664;DHT22;43493;53.098;6.064;2023-04-29T08:31:39;17.30;58.70
57664;DHT22;43493;53.098;6.064;2023-04-29T08:34:05;17.30;59.70
57664;DHT22;43493;53.098;6.064;2023-04-29T08:36:31;17.30;60.00
57664;DHT22;43493;53.098;6.064;2023-04-29T08:38:56;17.40;60.20
57664;DHT22;43493;53.098;6.064;2023-04-29T08:41:22;17.30;59.50
57664;DHT22;43493;53.098;6.064;2023-04-29T08:43:49;17.40;60.70
57664;DHT22;43493;53.098;6.064;2023-04-29T08:46:15;17.30;58.80
57664;DHT22;43493;53.098;6.064;2023-04-29T08:48:42;16.90;58.00
57664;DHT22;43493;53.098;6.064;2023-04-29T08:51:11;16.80;60.00
57664;DHT22;43493;53.098;6.064;2023-04-29T08:53:37;16.80;61.80
57664;DHT22;43493;53.098;6.064;2023-04-29T08:56:13;16.70;65.50
57664;DHT22;43493;53.098;6.064;2023-04-29T08:58:42;16.10;62.80
57664;DHT22;43493;53.098;6.064;2023-04-29T09:01:09;15.90;64.60
57664;DHT22;43493;53.098;6.064;2023-04-29T09:04:01;15.70;66.60
57664;DHT22;43493;53.098;6.064;2023-04-29T09:06:29;15.80;70.20
57664;DHT22;43493;53.098;6.064;2023-04-29T09:08:58;15.90;71.60
57664;DHT22;43493;53.098;6.064;2023-04-29T09:11:26;15.90;74.80
57664;DHT22;43493;53.098;6.064;2023-04-29T09:13:58;15.90;76.10
57664;DHT22;43493;53.098;6.064;2023-04-29T09:16:25;16.00;76.40
57664;DHT22;43493;53.098;6.064;2023-04-29T09:18:51;15.90;72.40
57664;DHT22;43493;53.098;6.064;2023-04-29T09:21:22;15.70;74.80
57664;DHT22;43493;53.098;6.064;2023-04-29T09:24:01;15.70;73.20
57664;DHT22;43493;53.098;6.064;2023-04-29T09:26:41;15.50;74.90
57664;DHT22;43493;53.098;6.064;2023-04-29T09:29:09;15.40;75.80
57664;DHT22;43493;53.098;6.064;2023-04-29T09:31:37;15.30;81.60
57664;DHT22;43493;53.098;6.064;2023-04-29T09:34:03;15.10;80.80
57664;DHT22;43493;53.098;6.064;2023-04-29T09:36:49;15.00;81.10
57664;DHT22;43493;53.098;6.064;2023-04-29T09:39:17;14.90;83.60
57664;DHT22;43493;53.098;6.064;2023-04-29T09:44:22;14.80;85.40
57664;DHT22;43493;53.098;6.064;2023-04-29T09:47:03;14.80;84.70
57664;DHT22;43493;53.098;6.064;2023-04-29T09:49:33;14.90;88.40
57664;DHT22;43493;53.098;6.064;2023-04-29T09:52:06;15.00;90.00
57664;DHT22;43493;53.098;6.064;2023-04-29T09:54:34;15.00;88.00
57664;DHT22;43493;53.098;6.064;2023-04-29T09:57:04;15.00;87.60
57664;DHT22;43493;53.098;6.064;2023-04-29T09:59:37;14.90;86.10
57664;DHT22;43493;53.098;6.064;2023-04-29T10:02:15;14.90;88.80
57664;DHT22;43493;53.098;6.064;2023-04-29T10:04:45;15.00;90.70
57664;DHT22;43493;53.098;6.064;2023-04-29T10:07:15;15.00;90.10
57664;DHT22;43493;53.098;6.064;2023-04-29T10:09:41;15.00;88.60
57664;DHT22;43493;53.098;6.064;2023-04-29T10:12:08;15.00;91.70
57664;DHT22;43493;53.098;6.064;2023-04-29T10:14:41;15.00;92.10
57664;DHT22;43493;53.098;6.064;2023-04-29T10:17:24;14.90;90.80
57664;DHT22;43493;53.098;6.064;2023-04-29T10:20:04;14.80;87.40
57664;DHT22;43493;53.098;6.064;2023-04-29T10:25:14;14.80;84.00
57664;DHT22;43493;53.098;6.064;2023-04-29T10:27:44;14.80;86.80
57664;DHT22;43493;53.098;6.064;2023-04-29T10:30:14;14.90;80.50
57664;DHT22;43493;53.098;6.064;2023-04-29T10:32:42;14.90;83.10
57664;DHT22;43493;53.098;6.064;2023-04-29T10:35:09;15.10;84.10
57664;DHT22;43493;53.098;6.064;2023-04-29T10:37:46;15.10;82.50
57664;DHT22;43493;53.098;6.064;2023-04-29T10:42:51;15.30;74.80
57664;DHT22;43493;53.098;6.064;2023-04-29T10:45:31;15.40;78.80
57664;DHT22;43493;53.098;6.064;2023-04-29T10:50:34;15.40;77.20
57664;DHT22;43493;53.098;6.064;2023-04-29T10:53:04;15.20;73.20
57664;DHT22;43493;53.098;6.064;2023-04-29T10:55:30;15.20;72.00
57664;DHT22;43493;53.098;6.064;2023-04-29T10:57:56;15.00;72.00
57664;DHT22;43493;53.098;6.064;2023-04-29T11:00:29;15.00;74.20
57664;DHT22;43493;53.098;6.064;2023-04-29T11:02:56;15.00;73.20
57664;DHT22;43493;53.098;6.064;2023-04-29T11:08:09;14.90;71.10
57664;DHT22;43493;53.098;6.064;2023-04-29T11:10:39;14.90;67.30
57664;DHT22;43493;53.098;6.064;2023-04-29T11:13:29;14.80;68.50
57664;DHT22;43493;53.098;6.064;2023-04-29T11:16:11;14.70;59.20
57664;DHT22;43493;53.098;6.064;2023-04-29T11:19:04;14.70;64.40
57664;DHT22;43493;53.098;6.064;2023-04-29T11:21:33;14.70;61.90
57664;DHT22;43493;53.098;6.064;2023-04-29T11:24:00;14.70;62.70
57664;DHT22;43493;53.098;6.064;2023-04-29T11:26:26;14.60;63.20
57664;DHT22;43493;53.098;6.064;2023-04-29T11:28:53;14.60;65.20
57664;DHT22;43493;53.098;6.064;2023-04-29T11:31:18;14.50;64.20
57664;DHT22;43493;53.098;6.064;2023-04-29T11:33:45;14.50;65.40
57664;DHT22;43493;53.098;6.064;2023-04-29T11:36:11;14.50;66.50
57664;DHT22;43493;53.098;6.064;2023-04-29T11:38:39;14.40;64.00
57664;DHT22;43493;53.098;6.064;2023-04-29T11:41:09;14.40;67.00
57664;DHT22;43493;53.098;6.064;2023-04-29T11:43:35;14.40;67.80
57664;DHT22;43493;53.098;6.064;2023-04-29T11:46:13;14.40;71.90
57664;DHT22;43493;53.098;6.064;2023-04-29T11:48:49;14.40;75.30
57664;DHT22;43493;53.098;6.064;2023-04-29T11:51:17;14.40;77.30
57664;DHT22;43493;53.098;6.064;2023-04-29T11:53:44;14.40;77.40
57664;DHT22;43493;53.098;6.064;2023-04-29T11:56:10;14.40;80.00
57664;DHT22;43493;53.098;6.064;2023-04-29T11:58:36;14.40;83.90
57664;DHT22;43493;53.098;6.064;2023-04-29T12:01:03;14.30;80.70
57664;DHT22;43493;53.098;6.064;2023-04-29T12:03:31;14.20;78.60
57664;DHT22;43493;53.098;6.064;2023-04-29T12:05:58;14.20;80.40
57664;DHT22;43493;53.098;6.064;2023-04-29T12:08:28;14.20;85.00
57664;DHT22;43493;53.098;6.064;2023-04-29T12:10:56;14.30;86.70
57664;DHT22;43493;53.098;6.064;2023-04-29T12:13:22;14.20;85.20
57664;DHT22;43493;53.098;6.064;2023-04-29T12:15:49;14.20;82.10
57664;DHT22;43493;53.098;6.064;2023-04-29T12:18:17;14.30;88.10
57664;DHT22;43493;53.098;6.064;2023-04-29T12:20:43;14.20;84.20
57664;DHT22;43493;53.098;6.064;2023-04-29T12:23:17;14.20;87.40
57664;DHT22;43493;53.098;6.064;2023-04-29T12:28:17;14.10;80.00
57664;DHT22;43493;53.098;6.064;2023-04-29T12:30:44;14.00;74.70
57664;DHT22;43493;53.098;6.064;2023-04-29T12:33:10;14.10;77.90
57664;DHT22;43493;53.098;6.064;2023-04-29T12:35:40;14.00;77.20
57664;DHT22;43493;53.098;6.064;2023-04-29T12:38:06;14.00;75.20
57664;DHT22;43493;53.098;6.064;2023-04-29T12:40:31;14.00;77.00
57664;DHT22;43493;53.098;6.064;2023-04-29T12:43:06;14.10;78.30
57664;DHT22;43493;53.098;6.064;2023-04-29T12:45:33;14.10;76.10
57664;DHT22;43493;53.098;6.064;2023-04-29T12:48:00;14.20;76.40
57664;DHT22;43493;53.098;6.064;2023-04-29T12:50:48;14.20;75.30
57664;DHT22;43493;53.098;6.064;2023-04-29T12:53:14;14.20;75.10
57664;DHT22;43493;53.098;6.064;2023-04-29T12:55:40;14.20;78.60
57664;DHT22;43493;53.098;6.064;2023-04-29T12:58:06;14.20;79.50
57664;DHT22;43493;53.098;6.064;2023-04-29T13:00:33;14.20;80.20
57664;DHT22;43493;53.098;6.064;2023-04-29T13:03:01;14.20;74.90
57664;DHT22;43493;53.098;6.064;2023-04-29T13:05:27;14.20;74.80
57664;DHT22;43493;53.098;6.064;2023-04-29T13:07:53;14.20;75.20
57664;DHT22;43493;53.098;6.064;2023-04-29T13:10:19;14.30;75.90
57664;DHT22;43493;53.098;6.064;2023-04-29T13:12:44;14.30;75.50
57664;DHT22;43493;53.098;6.064;2023-04-29T13:15:12;14.30;72.20
57664;DHT22;43493;53.098;6.064;2023-04-29T13:17:38;14.30;74.90
57664;DHT22;43493;53.098;6.064;2023-04-29T13:20:04;14.30;74.90
57664;DHT22;43493;53.098;6.064;2023-04-29T13:22:31;14.40;75.60
57664;DHT22;43493;53.098;6.064;2023-04-29T13:24:57;14.40;74.50
57664;DHT22;43493;53.098;6.064;2023-04-29T13:27:23;14.40;74.50
57664;DHT22;43493;53.098;6.064;2023-04-29T13:29:49;14.40;76.10
57664;DHT22;43493;53.098;6.064;2023-04-29T13:32:15;14.40;76.60
57664;DHT22;43493;53.098;6.064;2023-04-29T13:34:41;14.50;77.50
57664;DHT22;43493;53.098;6.064;2023-04-29T13:37:10;14.50;79.90
57664;DHT22;43493;53.098;6.064;2023-04-29T13:39:36;14.50;75.60
57664;DHT22;43493;53.098;6.064;2023-04-29T13:42:02;14.60;74.30
57664;DHT22;43493;53.098;6.064;2023-04-29T13:44:28;14.60;79.60
57664;DHT22;43493;53.098;6.064;2023-04-29T13:46:55;14.60;79.70
57664;DHT22;43493;53.098;6.064;2023-04-29T13:49:21;14.70;79.90
57664;DHT22;43493;53.098;6.064;2023-04-29T13:51:47;14.60;78.00
57664;DHT22;43493;53.098;6.064;2023-04-29T13:54:13;14.60;81.40
57664;DHT22;43493;53.098;6.064;2023-04-29T13:56:39;14.60;82.40
57664;DHT22;43493;53.098;6.064;2023-04-29T13:59:04;14.60;86.10
57664;DHT22;43493;53.098;6.064;2023-04-29T14:01:30;14.50;87.10
57664;DHT22;43493;53.098;6.064;2023-04-29T14:03:57;14.40;87.90
57664;DHT22;43493;53.098;6.064;2023-04-29T14:06:22;14.40;89.00
57664;DHT22;43493;53.098;6.064;2023-04-29T14:08:48;14.30;88.80
57664;DHT22;43493;53.098;6.064;2023-04-29T14:11:14;14.30;89.80
57664;DHT22;43493;53.098;6.064;2023-04-29T14:13:40;14.30;86.40
57664;DHT22;43493;53.098;6.064;2023-04-29T14:16:06;14.30;90.00
57664;DHT22;43493;53.098;6.064;2023-04-29T14:18:33;14.30;91.10
57664;DHT22;43493;53.098;6.064;2023-04-29T14:20:59;14.20;88.70
57664;DHT22;43493;53.098;6.064;2023-04-29T14:23:25;14.20;90.00
57664;DHT22;43493;53.098;6.064;2023-04-29T14:25:50;14.20;90.30
57664;DHT22;43493;53.098;6.064;2023-04-29T14:28:16;14.00;91.50
57664;DHT22;43493;53.098;6.064;2023-04-29T14:30:42;14.00;92.50
57664;DHT22;43493;53.098;6.064;2023-04-29T14:33:08;14.00;93.40
57664;DHT22;43493;53.098;6.064;2023-04-29T14:35:34;14.00;93.60
57664;DHT22;43493;53.098;6.064;2023-04-29T14:37:59;13.90;93.40
57664;DHT22;43493;53.098;6.064;2023-04-29T14:40:25;13.90;93.70
57664;DHT22;43493;53.098;6.064;2023-04-29T14:42:51;13.90;96.30
57664;DHT22;43493;53.098;6.064;2023-04-29T14:45:17;13.80;95.00
57664;DHT22;43493;53.098;6.064;2023-04-29T14:47:42;13.80;96.10
57664;DHT22;43493;53.098;6.064;2023-04-29T14:50:09;13.80;95.30
57664;DHT22;43493;53.098;6.064;2023-04-29T14:52:35;13.80;97.90
57664;DHT22;43493;53.098;6.064;2023-04-29T14:55:01;13.80;97.20
57664;DHT22;43493;53.098;6.064;2023-04-29T14:57:27;13.70;98.50
57664;DHT22;43493;53.098;6.064;2023-04-29T14:59:55;13.70;97.90
57664;DHT22;43493;53.098;6.064;2023-04-29T15:02:20;13.60;98.00
57664;DHT22;43493;53.098;6.064;2023-04-29T15:04:46;13.60;98.60
57664;DHT22;43493;53.098;6.064;2023-04-29T15:07:12;13.50;99.60
57664;DHT22;43493;53.098;6.064;2023-04-29T15:09:38;13.50;98.30
57664;DHT22;43493;53.098;6.064;2023-04-29T15:12:04;13.50;99.90
57664;DHT22;43493;53.098;6.064;2023-04-29T15:14:30;13.50;99.90
57664;DHT22;43493;53.098;6.064;2023-04-29T15:16:56;13.40;99.90
57664;DHT22;43493;53.098;6.064;2023-04-29T15:19:22;13.40;99.90
57664;DHT22;43493;53.098;6.064;2023-04-29T15:21:49;13.30;99.90
57664;DHT22;43493;53.098;6.064;2023-04-29T15:24:16;13.40;99.90
57664;DHT22;43493;53.098;6.064;2023-04-29T15:26:42;13.40;99.90
57664;DHT22;43493;53.098;6.064;2023-04-29T15:29:07;13.40;99.90
57664;DHT22;43493;53.098;6.064;2023-04-29T15:31:33;13.40;99.90
57664;DHT22;43493;53.098;6.064;2023-04-29T15:33:59;13.40;99.90
57664;DHT22;43493;53.098;6.064;2023-04-29T15:36:29;13.50;99.90
57664;DHT22;43493;53.098;6.064;2023-04-29T15:38:55;13.50;99.90
57664;DHT22;43493;53.098;6.064;2023-04-29T15:41:21;13.50;99.90
57664;DHT22;43493;53.098;6.064;2023-04-29T15:43:47;13.50;99.90
57664;DHT22;43493;53.098;6.064;2023-04-29T15:46:13;13.40;99.90
57664;DHT22;43493;53.098;6.064;2023-04-29T15:48:39;13.40;99.90
57664;DHT22;43493;53.098;6.064;2023-04-29T15:51:04;13.30;99.90
57664;DHT22;43493;53.098;6.064;2023-04-29T15:53:30;13.30;99.90
57664;DHT22;43493;53.098;6.064;2023-04-29T15:55:56;13.20;99.90
57664;DHT22;43493;53.098;6.064;2023-04-29T15:58:22;13.20;99.90
57664;DHT22;43493;53.098;6.064;2023-04-29T16:00:47;13.30;99.90
57664;DHT22;43493;53.098;6.064;2023-04-29T16:03:13;13.30;99.90